sensor_id;sensor_type;location;lat;lon;timestamp;pressure;altitude;pressure_sealevel;temperature;humidity
7918;BME280;4004;42.624;23.386;2022-08-14T00:01:30;93652.69;;;17.43;100.00
7918;BME280;4004;42.624;23.386;2022-08-14T00:03:58;93646.81;;;17.48;100.00
7918;BME280;4004;42.624;23.386;2022-08-14T00:06:25;93642.53;;;17.47;100.00
7918;BME280;4004;42.624;23.386;2022-08-14T00:08:52;93643.97;;;17.55;100.00
7918;BME280;4004;42.624;23.386;2022-08-14T00:11:19;93643.13;;;17.58;100.00
7918;BME280;4004;42.624;23.386;2022-08-14T00:13:46;93618.75;;;17.27;100.00
7918;BME280;4004;42.624;23.386;2022-08-14T00:16:13;93637.56;;;17.42;100.00
7918;BME280;4004;42.624;23.386;2022-08-14T00:18:40;93639.88;;;17.43;100.00
7918;BME280;4004;42.624;23.386;2022-08-14T00:21:08;93627.78;;;17.48;100.00
7918;BME280;4004;42.624;23.386;2022-08-14T00:23:35;93630.84;;;17.50;100.00
7918;BME280;4004;42.624;23.386;2022-08-14T00:26:02;93631.91;;;17.56;100.00
7918;BME280;4004;42.624;23.386;2022-08-14T00:28:29;93636.59;;;17.55;100.00
7918;BME280;4004;42.624;23.386;2022-08-14T00:30:56;93636.19;;;17.57;100.00
7918;BME280;4004;42.624;23.386;2022-08-14T00:33:24;93630.50;;;17.48;100.00
7918;BME280;4004;42.624;23.386;2022-08-14T00:35:52;93643.56;;;17.29;100.00
7918;BME280;4004;42.624;23.386;2022-08-14T00:38:21;93633.94;;;16.94;100.00
7918;BME280;4004;42.624;23.386;2022-08-14T00:40:48;93641.31;;;16.93;100.00
7918;BME280;4004;42.624;23.386;2022-08-14T00:43:16;93618.28;;;16.71;100.00
7918;BME280;4004;42.624;23.386;2022-08-14T00:45:43;93634.19;;;16.72;100.00
7918;BME280;4004;42.624;23.386;2022-08-14T00:48:10;93633.81;;;16.70;100.00
7918;BME280;4004;42.624;23.386;2022-08-14T00:50:37;93627.94;;;16.75;100.00
7918;BME280;4004;42.624;23.386;2022-08-14T00:53:05;93635.25;;;16.82;100.00
7918;BME280;4004;42.624;23.386;2022-08-14T00:55:34;93620.78;;;16.92;100.00
7918;BME280;4004;42.624;23.386;2022-08-14T00:58:02;93621.44;;;17.00;100.00
7918;BME280;4004;42.624;23.386;2022-08-14T01:00:48;93607.75;;;17.07;100.00
7918;BME280;4004;42.624;23.386;2022-08-14T01:03:16;93605.31;;;17.16;100.00
7918;BME280;4004;42.624;23.386;2022-08-14T01:05:44;93609.94;;;17.19;100.00
7918;BME280;4004;42.624;23.386;2022-08-14T01:08:15;93610.22;;;17.25;100.00
7918;BME280;4004;42.624;23.386;2022-08-14T01:10:44;93604.41;;;17.27;100.00
7918;BME280;4004;42.624;23.386;2022-08-14T01:13:18;93609.78;;;17.30;100.00
7918;BME280;4004;42.624;23.386;2022-08-14T01:15:48;93606.72;;;17.28;100.00
7918;BME280;4004;42.624;23.386;2022-08-14T01:18:15;93614.50;;;17.26;100.00
7918;BME280;4004;42.624;23.386;2022-08-14T01:20:59;93603.63;;;17.26;100.00
7918;BME280;4004;42.624;23.386;2022-08-14T01:23:33;93597.38;;;17.29;100.00
7918;BME280;4004;42.624;23.386;2022-08-14T01:26:01;93601.38;;;17.21;100.00
7918;BME280;4004;42.624;23.386;2022-08-14T01:28:29;93597.38;;;17.29;100.00
7918;BME280;4004;42.624;23.386;2022-08-14T01:31:01;93597.13;;;17.20;100.00
7918;BME280;4004;42.624;23.386;2022-08-14T01:33:30;93588.47;;;17.02;100.00
7918;BME280;4004;42.624;23.386;2022-08-14T01:35:58;93582.56;;;17.07;100.00
7918;BME280;4004;42.624;23.386;2022-08-14T01:38:25;93584.88;;;17.08;100.00
7918;BME280;4004;42.624;23.386;2022-08-14T01:40:53;93595.66;;;17.12;100.00
7918;BME280;4004;42.624;23.386;2022-08-14T01:43:20;93593.31;;;17.14;100.00
7918;BME280;4004;42.624;23.386;2022-08-14T01:45:48;93596.00;;;17.17;100.00
7918;BME280;4004;42.624;23.386;2022-08-14T01:48:17;93593.28;;;17.17;100.00
7918;BME280;4004;42.624;23.386;2022-08-14T01:50:44;93590.66;;;17.10;100.00
7918;BME280;4004;42.624;23.386;2022-08-14T01:53:11;93589.06;;;17.13;100.00
7918;BME280;4004;42.624;23.386;2022-08-14T01:55:38;93588.25;;;17.16;100.00
7918;BME280;4004;42.624;23.386;2022-08-14T01:58:06;93589.72;;;17.20;100.00
7918;BME280;4004;42.624;23.386;2022-08-14T02:00:37;93590.19;;;17.15;100.00
7918;BME280;4004;42.624;23.386;2022-08-14T02:03:04;93593.03;;;17.08;100.00
7918;BME280;4004;42.624;23.386;2022-08-14T02:05:32;93581.78;;;17.06;100.00
7918;BME280;4004;42.624;23.386;2022-08-14T02:07:59;93594.03;;;17.18;100.00
7918;BME280;4004;42.624;23.386;2022-08-14T02:10:26;93591.63;;;17.24;100.00
7918;BME280;4004;42.624;23.386;2022-08-14T02:12:54;93586.97;;;17.24;100.00
7918;BME280;4004;42.624;23.386;2022-08-14T02:15:24;93571.88;;;17.23;100.00
7918;BME280;4004;42.624;23.386;2022-08-14T02:17:51;93579.66;;;17.21;100.00
7918;BME280;4004;42.624;23.386;2022-08-14T02:20:18;93578.94;;;17.17;100.00
7918;BME280;4004;42.624;23.386;2022-08-14T02:22:45;93573.06;;;17.18;100.00
7918;BME280;4004;42.624;23.386;2022-08-14T02:25:12;93575.69;;;17.26;100.00
7918;BME280;4004;42.624;23.386;2022-08-14T02:27:40;93569.94;;;17.20;100.00
7918;BME280;4004;42.624;23.386;2022-08-14T02:30:08;93579.66;;;17.21;100.00
7918;BME280;4004;42.624;23.386;2022-08-14T02:32:36;93575.69;;;17.26;100.00
7918;BME280;4004;42.624;23.386;2022-08-14T02:35:05;93576.09;;;17.24;100.00
7918;BME280;4004;42.624;23.386;2022-08-14T02:37:34;93582.66;;;17.27;100.00
7918;BME280;4004;42.624;23.386;2022-08-14T02:40:03;93579.53;;;17.28;100.00
7918;BME280;4004;42.624;23.386;2022-08-14T02:42:30;93578.72;;;17.31;100.00
7918;BME280;4004;42.624;23.386;2022-08-14T02:44:58;93577.91;;;17.34;100.00
7918;BME280;4004;42.624;23.386;2022-08-14T02:47:25;93578.19;;;17.40;100.00
7918;BME280;4004;42.624;23.386;2022-08-14T02:49:54;93572.25;;;17.49;100.00
7918;BME280;4004;42.624;23.386;2022-08-14T02:52:22;93565.91;;;17.55;100.00
7918;BME280;4004;42.624;23.386;2022-08-14T02:54:50;93560.13;;;17.53;100.00
7918;BME280;4004;42.624;23.386;2022-08-14T02:57:18;93566.31;;;17.54;100.00
7918;BME280;4004;42.624;23.386;2022-08-14T02:59:47;93569.84;;;17.54;100.00
7918;BME280;4004;42.624;23.386;2022-08-14T03:02:15;93565.03;;;17.62;100.00
7918;BME280;4004;42.624;23.386;2022-08-14T03:04:42;93566.91;;;17.65;100.00
7918;BME280;4004;42.624;23.386;2022-08-14T03:07:10;93561.91;;;17.64;100.00
7918;BME280;4004;42.624;23.386;2022-08-14T03:09:38;93567.28;;;17.67;100.00
7918;BME280;4004;42.624;23.386;2022-08-14T03:12:05;93565.25;;;17.71;100.00
7918;BME280;4004;42.624;23.386;2022-08-14T03:14:32;93571.91;;;17.70;100.00
7918;BME280;4004;42.624;23.386;2022-08-14T03:17:02;93566.03;;;17.72;100.00
7918;BME280;4004;42.624;23.386;2022-08-14T03:19:29;93569.06;;;17.77;100.00
7918;BME280;4004;42.624;23.386;2022-08-14T03:21:56;93574.53;;;17.74;100.00
7918;BME280;4004;42.624;23.386;2022-08-14T03:24:24;93575.25;;;17.78;100.00
7918;BME280;4004;42.624;23.386;2022-08-14T03:26:51;93570.56;;;17.82;100.00
7918;BME280;4004;42.624;23.386;2022-08-14T03:29:20;93572.50;;;17.81;100.00
7918;BME280;4004;42.624;23.386;2022-08-14T03:31:47;93580.94;;;17.87;100.00
7918;BME280;4004;42.624;23.386;2022-08-14T03:34:15;93583.25;;;17.89;100.00
7918;BME280;4004;42.624;23.386;2022-08-14T03:36:43;93593.78;;;17.87;100.00
7918;BME280;4004;42.624;23.386;2022-08-14T03:39:11;93596.59;;;17.83;100.00
7918;BME280;4004;42.624;23.386;2022-08-14T03:41:39;93591.91;;;17.80;100.00
7918;BME280;4004;42.624;23.386;2022-08-14T03:44:06;93589.53;;;17.86;100.00
7918;BME280;4004;42.624;23.386;2022-08-14T03:46:35;93594.53;;;17.87;100.00
7918;BME280;4004;42.624;23.386;2022-08-14T03:49:04;93598.81;;;17.88;100.00
7918;BME280;4004;42.624;23.386;2022-08-14T03:51:31;93602.03;;;17.79;100.00
7918;BME280;4004;42.624;23.386;2022-08-14T03:54:00;93611.34;;;17.78;100.00
7918;BME280;4004;42.624;23.386;2022-08-14T03:56:28;93608.41;;;17.69;100.00
7918;BME280;4004;42.624;23.386;2022-08-14T03:58:59;93604.16;;;17.68;100.00
7918;BME280;4004;42.624;23.386;2022-08-14T04:01:26;93600.53;;;17.51;100.00
7918;BME280;4004;42.624;23.386;2022-08-14T04:03:54;93604.84;;;17.49;100.00
7918;BME280;4004;42.624;23.386;2022-08-14T04:06:24;93594.81;;;17.46;100.00
7918;BME280;4004;42.624;23.386;2022-08-14T04:08:51;93594.66;;;17.56;100.00
7918;BME280;4004;42.624;23.386;2022-08-14T04:11:18;93603.94;;;17.59;100.00
7918;BME280;4004;42.624;23.386;2022-08-14T04:13:45;93599.25;;;17.59;100.00
7918;BME280;4004;42.624;23.386;2022-08-14T04:16:16;93602.25;;;17.65;100.00
7918;BME280;4004;42.624;23.386;2022-08-14T04:18:47;93606.88;;;17.68;100.00
7918;BME280;4004;42.624;23.386;2022-08-14T04:21:15;93603.84;;;17.63;100.00
7918;BME280;4004;42.624;23.386;2022-08-14T04:23:43;93605.31;;;17.67;100.00
7918;BME280;4004;42.624;23.386;2022-08-14T04:26:12;93609.84;;;17.77;100.00
7918;BME280;4004;42.624;23.386;2022-08-14T04:28:41;93604.44;;;17.74;100.00
7918;BME280;4004;42.624;23.386;2022-08-14T04:31:08;93602.09;;;17.76;100.00
7918;BME280;4004;42.624;23.386;2022-08-14T04:33:36;93604.31;;;17.85;100.00
7918;BME280;4004;42.624;23.386;2022-08-14T04:36:04;93600.34;;;17.89;100.00
7918;BME280;4004;42.624;23.386;2022-08-14T04:38:31;93605.72;;;17.93;100.00
7918;BME280;4004;42.624;23.386;2022-08-14T04:41:15;93585.09;;;17.95;100.00
7918;BME280;4004;42.624;23.386;2022-08-14T04:43:59;93598.63;;;17.99;100.00
7918;BME280;4004;42.624;23.386;2022-08-14T04:46:26;93596.28;;;18.01;100.00
7918;BME280;4004;42.624;23.386;2022-08-14T04:48:55;93597.22;;;17.91;100.00
7918;BME280;4004;42.624;23.386;2022-08-14T04:51:22;93606.66;;;17.83;100.00
7918;BME280;4004;42.624;23.386;2022-08-14T04:53:50;93598.59;;;17.75;100.00
7918;BME280;4004;42.624;23.386;2022-08-14T04:56:18;93602.34;;;17.85;100.00
7918;BME280;4004;42.624;23.386;2022-08-14T04:58:47;93599.38;;;17.76;100.00
7918;BME280;4004;42.624;23.386;2022-08-14T05:01:15;93599.00;;;17.74;100.00
7918;BME280;4004;42.624;23.386;2022-08-14T05:03:42;93595.25;;;17.68;100.00
7918;BME280;4004;42.624;23.386;2022-08-14T05:06:11;93602.69;;;17.64;100.00
7918;BME280;4004;42.624;23.386;2022-08-14T05:08:38;93596.22;;;17.54;100.00
7918;BME280;4004;42.624;23.386;2022-08-14T05:11:08;93597.09;;;17.47;100.00
7918;BME280;4004;42.624;23.386;2022-08-14T05:13:35;93588.84;;;17.54;100.00
7918;BME280;4004;42.624;23.386;2022-08-14T05:16:04;93596.56;;;17.56;100.00
7918;BME280;4004;42.624;23.386;2022-08-14T05:18:34;93606.22;;;17.60;100.00
7918;BME280;4004;42.624;23.386;2022-08-14T05:21:07;93604.22;;;17.65;100.00
7918;BME280;4004;42.624;23.386;2022-08-14T05:23:37;93599.81;;;17.74;100.00
7918;BME280;4004;42.624;23.386;2022-08-14T05:26:06;93609.44;;;17.79;100.00
7918;BME280;4004;42.624;23.386;2022-08-14T05:28:39;93603.94;;;17.83;100.00
7918;BME280;4004;42.624;23.386;2022-08-14T05:31:09;93603.63;;;17.77;100.00
7918;BME280;4004;42.624;23.386;2022-08-14T05:33:37;93605.84;;;17.86;100.00
7918;BME280;4004;42.624;23.386;2022-08-14T05:36:05;93606.50;;;17.93;100.00
7918;BME280;4004;42.624;23.386;2022-08-14T05:38:35;93610.28;;;17.99;100.00
7918;BME280;4004;42.624;23.386;2022-08-14T05:41:03;93600.94;;;18.00;100.00
7918;BME280;4004;42.624;23.386;2022-08-14T05:43:30;93608.97;;;18.08;100.00
7918;BME280;4004;42.624;23.386;2022-08-14T05:45:58;93610.81;;;18.14;100.00
7918;BME280;4004;42.624;23.386;2022-08-14T05:48:26;93604.94;;;18.16;100.00
7918;BME280;4004;42.624;23.386;2022-08-14T05:50:54;93604.38;;;18.25;100.00
7918;BME280;4004;42.624;23.386;2022-08-14T05:53:21;93598.41;;;18.33;100.00
7918;BME280;4004;42.624;23.386;2022-08-14T05:55:50;93608.25;;;18.47;100.00
7918;BME280;4004;42.624;23.386;2022-08-14T05:58:18;93604.63;;;18.54;100.00
7918;BME280;4004;42.624;23.386;2022-08-14T06:00:45;93605.69;;;18.60;100.00
7918;BME280;4004;42.624;23.386;2022-08-14T06:03:14;93602.75;;;18.51;100.00
7918;BME280;4004;42.624;23.386;2022-08-14T06:05:42;93611.41;;;18.46;100.00
7918;BME280;4004;42.624;23.386;2022-08-14T06:08:14;93608.47;;;18.36;100.00
7918;BME280;4004;42.624;23.386;2022-08-14T06:10:41;93614.53;;;18.44;100.00
7918;BME280;4004;42.624;23.386;2022-08-14T06:13:09;93621.84;;;18.47;100.00
7918;BME280;4004;42.624;23.386;2022-08-14T06:15:36;93619.03;;;18.54;100.00
7918;BME280;4004;42.624;23.386;2022-08-14T06:18:03;93603.91;;;18.50;100.00
7918;BME280;4004;42.624;23.386;2022-08-14T06:20:30;93619.94;;;18.68;100.00
7918;BME280;4004;42.624;23.386;2022-08-14T06:22:57;93614.81;;;18.70;100.00
7918;BME280;4004;42.624;23.386;2022-08-14T06:25:24;93614.63;;;18.80;100.00
7918;BME280;4004;42.624;23.386;2022-08-14T06:27:52;93627.69;;;18.89;100.00
7918;BME280;4004;42.624;23.386;2022-08-14T06:30:22;93626.00;;;18.95;100.00
7918;BME280;4004;42.624;23.386;2022-08-14T06:32:49;93626.97;;;19.05;100.00
7918;BME280;4004;42.624;23.386;2022-08-14T06:35:16;93628.88;;;18.88;100.00
7918;BME280;4004;42.624;23.386;2022-08-14T06:37:46;93628.19;;;18.84;100.00
7918;BME280;4004;42.624;23.386;2022-08-14T06:40:15;93629.66;;;18.89;100.00
7918;BME280;4004;42.624;23.386;2022-08-14T06:42:43;93630.34;;;18.93;100.00
7918;BME280;4004;42.624;23.386;2022-08-14T06:45:10;93630.41;;;18.89;100.00
7918;BME280;4004;42.624;23.386;2022-08-14T06:47:40;93631.88;;;18.94;100.00
7918;BME280;4004;42.624;23.386;2022-08-14T06:50:09;93637.06;;;18.88;100.00
7918;BME280;4004;42.624;23.386;2022-08-14T06:52:36;93633.22;;;18.86;100.00
7918;BME280;4004;42.624;23.386;2022-08-14T06:55:04;93629.59;;;18.92;100.00
7918;BME280;4004;42.624;23.386;2022-08-14T06:57:34;93639.28;;;18.93;100.00
7918;BME280;4004;42.624;23.386;2022-08-14T07:00:03;93635.84;;;18.89;100.00
7918;BME280;4004;42.624;23.386;2022-08-14T07:02:30;93633.47;;;18.91;100.00
7918;BME280;4004;42.624;23.386;2022-08-14T07:05:21;93640.34;;;18.99;100.00
7918;BME280;4004;42.624;23.386;2022-08-14T07:08:05;93634.03;;;19.02;100.00
7918;BME280;4004;42.624;23.386;2022-08-14T07:10:37;93644.44;;;19.08;100.00
7918;BME280;4004;42.624;23.386;2022-08-14T07:13:04;93634.72;;;19.07;100.00
7918;BME280;4004;42.624;23.386;2022-08-14T07:15:30;93638.34;;;19.20;100.00
7918;BME280;4004;42.624;23.386;2022-08-14T07:17:58;93637.03;;;19.08;100.00
7918;BME280;4004;42.624;23.386;2022-08-14T07:20:26;93633.28;;;19.02;100.00
7918;BME280;4004;42.624;23.386;2022-08-14T07:22:54;93633.28;;;19.02;100.00
7918;BME280;4004;42.624;23.386;2022-08-14T07:25:22;93637.03;;;19.08;100.00
7918;BME280;4004;42.624;23.386;2022-08-14T07:27:50;93639.13;;;19.00;100.00
7918;BME280;4004;42.624;23.386;2022-08-14T07:30:17;93640.38;;;18.96;100.00
7918;BME280;4004;42.624;23.386;2022-08-14T07:32:43;93634.03;;;19.02;100.00
7918;BME280;4004;42.624;23.386;2022-08-14T07:35:10;93640.47;;;19.12;100.00
7918;BME280;4004;42.624;23.386;2022-08-14T07:37:38;93641.69;;;19.28;100.00
7918;BME280;4004;42.624;23.386;2022-08-14T07:40:06;93639.69;;;19.48;100.00
7918;BME280;4004;42.624;23.386;2022-08-14T07:42:33;93644.28;;;19.51;100.00
7918;BME280;4004;42.624;23.386;2022-08-14T07:45:00;93641.66;;;19.64;100.00
7918;BME280;4004;42.624;23.386;2022-08-14T07:47:27;93652.56;;;19.64;100.00
7918;BME280;4004;42.624;23.386;2022-08-14T07:50:00;93648.13;;;19.54;100.00
7918;BME280;4004;42.624;23.386;2022-08-14T07:52:27;93645.22;;;19.44;100.00
7918;BME280;4004;42.624;23.386;2022-08-14T07:54:55;93649.97;;;19.40;100.00
7918;BME280;4004;42.624;23.386;2022-08-14T07:57:22;93646.81;;;19.42;100.00
7918;BME280;4004;42.624;23.386;2022-08-14T07:59:49;93646.94;;;19.55;100.00
7918;BME280;4004;42.624;23.386;2022-08-14T08:02:16;93646.47;;;19.40;100.00
7918;BME280;4004;42.624;23.386;2022-08-14T08:04:44;93647.91;;;19.28;100.00
7918;BME280;4004;42.624;23.386;2022-08-14T08:07:12;93644.56;;;19.20;100.00
7918;BME280;4004;42.624;23.386;2022-08-14T08:09:42;93642.81;;;19.30;100.00
7918;BME280;4004;42.624;23.386;2022-08-14T08:12:12;93642.31;;;19.35;100.00
7918;BME280;4004;42.624;23.386;2022-08-14T08:14:40;93641.53;;;19.35;100.00
7918;BME280;4004;42.624;23.386;2022-08-14T08:17:08;93640.09;;;19.30;100.00
7918;BME280;4004;42.624;23.386;2022-08-14T08:19:37;93637.53;;;19.39;100.00
7918;BME280;4004;42.624;23.386;2022-08-14T08:22:04;93644.97;;;19.39;100.00
7918;BME280;4004;42.624;23.386;2022-08-14T08:24:31;93641.66;;;19.48;100.00
7918;BME280;4004;42.624;23.386;2022-08-14T08:26:58;93639.09;;;19.57;100.00
7918;BME280;4004;42.624;23.386;2022-08-14T08:29:28;93639.53;;;19.55;100.00
7918;BME280;4004;42.624;23.386;2022-08-14T08:31:55;93639.78;;;19.61;100.00
7918;BME280;4004;42.624;23.386;2022-08-14T08:34:23;93637.00;;;19.81;100.00
7918;BME280;4004;42.624;23.386;2022-08-14T08:36:50;93639.31;;;19.82;100.00
7918;BME280;4004;42.624;23.386;2022-08-14T08:39:17;93636.91;;;19.84;100.00
7918;BME280;4004;42.624;23.386;2022-08-14T08:41:45;93641.78;;;19.77;100.00
7918;BME280;4004;42.624;23.386;2022-08-14T08:44:13;93637.09;;;19.77;100.00
7918;BME280;4004;42.624;23.386;2022-08-14T08:46:42;93631.44;;;19.68;100.00
7918;BME280;4004;42.624;23.386;2022-08-14T08:49:09;93634.88;;;19.72;100.00
7918;BME280;4004;42.624;23.386;2022-08-14T08:51:37;93632.88;;;19.56;100.00
7918;BME280;4004;42.624;23.386;2022-08-14T08:54:05;93643.44;;;19.54;100.00
7918;BME280;4004;42.624;23.386;2022-08-14T08:56:38;93630.41;;;19.62;100.00
7918;BME280;4004;42.624;23.386;2022-08-14T08:59:19;93630.19;;;19.73;100.00
7918;BME280;4004;42.624;23.386;2022-08-14T09:01:49;93625.44;;;19.77;100.00
7918;BME280;4004;42.624;23.386;2022-08-14T09:04:17;93622.94;;;19.82;100.00
7918;BME280;4004;42.624;23.386;2022-08-14T09:06:45;93628.06;;;19.97;100.00
7918;BME280;4004;42.624;23.386;2022-08-14T09:09:19;93611.94;;;20.02;100.00
7918;BME280;4004;42.624;23.386;2022-08-14T09:11:46;93618.34;;;20.12;100.00
7918;BME280;4004;42.624;23.386;2022-08-14T09:14:12;93624.53;;;20.29;100.00
7918;BME280;4004;42.624;23.386;2022-08-14T09:16:39;93620.75;;;20.39;100.00
7918;BME280;4004;42.624;23.386;2022-08-14T09:19:08;93625.81;;;20.54;100.00
7918;BME280;4004;42.624;23.386;2022-08-14T09:21:37;93607.91;;;20.53;100.00
7918;BME280;4004;42.624;23.386;2022-08-14T09:24:04;93617.50;;;20.74;100.00
7918;BME280;4004;42.624;23.386;2022-08-14T09:26:31;93618.72;;;20.73;100.00
7918;BME280;4004;42.624;23.386;2022-08-14T09:28:58;93616.78;;;20.86;100.00
7918;BME280;4004;42.624;23.386;2022-08-14T09:31:26;93617.38;;;21.06;100.00
7918;BME280;4004;42.624;23.386;2022-08-14T09:34:05;93614.03;;;21.28;100.00
7918;BME280;4004;42.624;23.386;2022-08-14T09:39:36;93620.38;;;22.02;94.77
7918;BME280;4004;42.624;23.386;2022-08-14T09:42:19;93612.91;;;22.50;89.02
7918;BME280;4004;42.624;23.386;2022-08-14T09:45:00;93621.88;;;23.07;85.39
7918;BME280;4004;42.624;23.386;2022-08-14T09:47:48;93638.50;;;23.35;86.09
7918;BME280;4004;42.624;23.386;2022-08-14T09:50:18;93630.13;;;23.38;82.48
7918;BME280;4004;42.624;23.386;2022-08-14T09:52:52;93631.75;;;23.05;82.04
7918;BME280;4004;42.624;23.386;2022-08-14T09:55:21;93620.72;;;22.95;83.98
7918;BME280;4004;42.624;23.386;2022-08-14T09:57:48;93615.50;;;23.10;82.13
7918;BME280;4004;42.624;23.386;2022-08-14T10:00:17;93629.25;;;23.20;80.07
7918;BME280;4004;42.624;23.386;2022-08-14T10:02:52;93621.22;;;23.25;79.42
7918;BME280;4004;42.624;23.386;2022-08-14T10:05:30;93621.22;;;23.25;80.47
7918;BME280;4004;42.624;23.386;2022-08-14T10:08:00;93618.53;;;23.34;80.86
7918;BME280;4004;42.624;23.386;2022-08-14T10:10:32;93623.63;;;23.23;81.31
7918;BME280;4004;42.624;23.386;2022-08-14T10:13:00;93626.47;;;23.10;82.32
7918;BME280;4004;42.624;23.386;2022-08-14T10:15:30;93615.00;;;23.03;83.52
7918;BME280;4004;42.624;23.386;2022-08-14T10:18:05;93616.88;;;22.93;82.64
7918;BME280;4004;42.624;23.386;2022-08-14T10:20:36;93617.00;;;22.89;83.74
7918;BME280;4004;42.624;23.386;2022-08-14T10:23:15;93614.56;;;23.04;81.65
7918;BME280;4004;42.624;23.386;2022-08-14T10:25:44;93612.16;;;22.93;83.39
7918;BME280;4004;42.624;23.386;2022-08-14T10:28:12;93602.59;;;22.98;82.37
7918;BME280;4004;42.624;23.386;2022-08-14T10:30:43;93609.63;;;22.99;81.28
7918;BME280;4004;42.624;23.386;2022-08-14T10:33:24;93604.22;;;22.86;79.92
7918;BME280;4004;42.624;23.386;2022-08-14T10:35:51;93603.44;;;22.86;80.92
7918;BME280;4004;42.624;23.386;2022-08-14T10:38:30;93602.59;;;22.98;79.34
7918;BME280;4004;42.624;23.386;2022-08-14T10:41:08;93590.88;;;23.20;78.41
7918;BME280;4004;42.624;23.386;2022-08-14T10:43:38;93585.19;;;23.45;78.66
7918;BME280;4004;42.624;23.386;2022-08-14T10:46:13;93579.47;;;23.62;78.52
7918;BME280;4004;42.624;23.386;2022-08-14T10:48:40;93573.38;;;23.67;77.95
7918;BME280;4004;42.624;23.386;2022-08-14T10:51:07;93576.84;;;23.58;78.22
7918;BME280;4004;42.624;23.386;2022-08-14T10:53:38;93578.56;;;23.74;77.53
7918;BME280;4004;42.624;23.386;2022-08-14T10:56:09;93573.31;;;23.79;77.38
7918;BME280;4004;42.624;23.386;2022-08-14T10:58:38;93567.06;;;23.88;76.87
7918;BME280;4004;42.624;23.386;2022-08-14T11:01:05;93561.72;;;23.94;76.46
7918;BME280;4004;42.624;23.386;2022-08-14T11:03:40;93567.72;;;24.02;76.90
7918;BME280;4004;42.624;23.386;2022-08-14T11:06:12;93558.69;;;24.01;75.23
7918;BME280;4004;42.624;23.386;2022-08-14T11:08:45;93567.84;;;24.07;75.06
7918;BME280;4004;42.624;23.386;2022-08-14T11:11:13;93571.22;;;24.20;74.69
7918;BME280;4004;42.624;23.386;2022-08-14T11:13:42;93560.38;;;24.08;75.59
7918;BME280;4004;42.624;23.386;2022-08-14T11:16:11;93558.53;;;24.05;74.92
7918;BME280;4004;42.624;23.386;2022-08-14T11:18:43;93553.97;;;24.02;74.36
7918;BME280;4004;42.624;23.386;2022-08-14T11:21:14;93534.56;;;23.77;74.29
7918;BME280;4004;42.624;23.386;2022-08-14T11:23:45;93551.34;;;23.89;74.10
7918;BME280;4004;42.624;23.386;2022-08-14T11:26:14;93553.66;;;23.99;73.67
7918;BME280;4004;42.624;23.386;2022-08-14T11:28:45;93553.06;;;24.05;73.11
7918;BME280;4004;42.624;23.386;2022-08-14T11:31:13;93555.78;;;23.86;73.84
7918;BME280;4004;42.624;23.386;2022-08-14T11:33:40;93561.69;;;23.75;73.21
7918;BME280;4004;42.624;23.386;2022-08-14T11:36:09;93561.00;;;23.53;74.55
7918;BME280;4004;42.624;23.386;2022-08-14T11:38:36;93565.66;;;23.43;75.44
7918;BME280;4004;42.624;23.386;2022-08-14T11:41:05;93569.50;;;23.46;75.17
7918;BME280;4004;42.624;23.386;2022-08-14T11:43:37;93570.75;;;23.54;75.04
7918;BME280;4004;42.624;23.386;2022-08-14T11:46:05;93564.44;;;23.35;75.06
7918;BME280;4004;42.624;23.386;2022-08-14T11:48:31;93559.84;;;23.32;76.36
7918;BME280;4004;42.624;23.386;2022-08-14T11:50:58;93572.69;;;23.44;75.97
7918;BME280;4004;42.624;23.386;2022-08-14T11:53:27;93568.88;;;23.42;75.74
7918;BME280;4004;42.624;23.386;2022-08-14T11:55:55;93567.22;;;23.44;75.89
7918;BME280;4004;42.624;23.386;2022-08-14T11:58:28;93561.13;;;23.49;75.53
7918;BME280;4004;42.624;23.386;2022-08-14T12:00:57;93554.03;;;23.61;75.16
7918;BME280;4004;42.624;23.386;2022-08-14T12:03:36;93549.41;;;23.58;75.11
7918;BME280;4004;42.624;23.386;2022-08-14T12:06:04;93570.34;;;23.74;74.59
7918;BME280;4004;42.624;23.386;2022-08-14T12:08:33;93570.94;;;23.69;73.66
7918;BME280;4004;42.624;23.386;2022-08-14T12:11:00;93556.78;;;23.70;73.53
7918;BME280;4004;42.624;23.386;2022-08-14T12:13:30;93555.41;;;23.66;74.04
7918;BME280;4004;42.624;23.386;2022-08-14T12:16:00;93548.06;;;23.72;73.87
7918;BME280;4004;42.624;23.386;2022-08-14T12:18:32;93545.84;;;23.79;73.41
7918;BME280;4004;42.624;23.386;2022-08-14T12:21:10;93542.19;;;23.83;73.08
7918;BME280;4004;42.624;23.386;2022-08-14T12:23:36;93542.06;;;23.86;71.56
7918;BME280;4004;42.624;23.386;2022-08-14T12:26:05;93543.72;;;23.84;70.62
7918;BME280;4004;42.624;23.386;2022-08-14T12:28:33;93542.56;;;23.63;71.19
7918;BME280;4004;42.624;23.386;2022-08-14T12:31:11;93533.53;;;23.44;72.50
7918;BME280;4004;42.624;23.386;2022-08-14T12:33:43;93543.03;;;23.21;74.38
7918;BME280;4004;42.624;23.386;2022-08-14T12:36:20;93542.63;;;23.00;75.84
7918;BME280;4004;42.624;23.386;2022-08-14T12:38:47;93545.00;;;22.89;77.56
7918;BME280;4004;42.624;23.386;2022-08-14T12:41:17;93540.81;;;22.75;79.61
7918;BME280;4004;42.624;23.386;2022-08-14T12:43:47;93544.38;;;22.63;81.53
7918;BME280;4004;42.624;23.386;2022-08-14T12:46:23;93537.81;;;22.60;83.17
7918;BME280;4004;42.624;23.386;2022-08-14T12:48:50;93539.78;;;22.60;84.43
7918;BME280;4004;42.624;23.386;2022-08-14T12:51:18;93529.53;;;22.51;87.46
7918;BME280;4004;42.624;23.386;2022-08-14T12:53:45;93531.00;;;22.43;90.66
7918;BME280;4004;42.624;23.386;2022-08-14T12:56:16;93527.09;;;22.31;94.23
7918;BME280;4004;42.624;23.386;2022-08-14T12:58:48;93523.69;;;22.40;95.67
7918;BME280;4004;42.624;23.386;2022-08-14T13:01:20;93518.72;;;22.12;98.68
7918;BME280;4004;42.624;23.386;2022-08-14T13:03:47;93509.19;;;21.82;100.00
7918;BME280;4004;42.624;23.386;2022-08-14T13:06:14;93511.84;;;21.73;100.00
7918;BME280;4004;42.624;23.386;2022-08-14T13:08:42;93502.91;;;21.60;100.00
7918;BME280;4004;42.624;23.386;2022-08-14T13:11:11;93505.66;;;21.47;100.00
7918;BME280;4004;42.624;23.386;2022-08-14T13:13:41;93499.41;;;21.33;100.00
7918;BME280;4004;42.624;23.386;2022-08-14T13:16:12;93498.09;;;21.25;100.00